Time;durP1;ratioP1;P1;durP2;ratioP2;P2;SDS_P1;SDS_P2;PMS_P1;PMS_P2;Temp;Humidity;BMP_temperature;BMP_pressure;BME280_temperature;BME280_humidity;BME280_pressure;Samples;Min_cycle;Max_cycle;Signal;HPM_P1;HPM_P2
2021/07/30 00:51:44;;;;;;;21.93;15.25;;;;;;;21.64;100.00;100206.13;1841543;75;21075;-91
2021/07/30 00:54:12;;;;;;;17.07;13.50;;;;;;;21.70;100.00;100198.22;1890790;74;21100;-90
2021/07/30 00:56:45;;;;;;;19.55;13.45;;;;;;;21.64;100.00;100185.78;1918071;74;21580;-89
2021/07/30 00:59:15;;;;;;;15.23;13.15;;;;;;;21.53;100.00;100183.16;1880799;74;20911;-93
2021/07/30 01:01:43;;;;;;;23.40;14.18;;;;;;;21.48;100.00;100196.69;1894044;74;21549;-92
2021/07/30 01:04:21;;;;;;;;;;;;;;;;;;;;;
2021/07/30 01:07:03;;;;;;;;;;;;;;;;;;;;;
2021/07/30 01:09:26;;;;;;;20.75;15.10;;;;;;;21.41;100.00;100183.41;1816127;74;21096;-93
2021/07/30 01:11:54;;;;;;;28.02;15.53;;;;;;;21.26;100.00;100179.59;1876363;74;21018;-94
2021/07/30 01:14:23;;;;;;;20.10;16.10;;;;;;;21.19;100.00;100185.36;1882046;74;21081;-90
2021/07/30 01:16:52;;;;;;;20.90;15.90;;;;;;;21.17;100.00;100199.29;1895083;74;21025;-92
2021/07/30 01:19:25;;;;;;;23.30;17.50;;;;;;;21.18;100.00;100192.98;1814546;77;21066;-91
2021/07/30 01:22:03;;;;;;;21.37;16.30;;;;;;;21.14;100.00;100190.41;1813936;78;20981;-94
2021/07/30 01:24:27;;;;;;;19.32;15.98;;;;;;;21.10;100.00;100187.33;1814966;77;21042;-93
2021/07/30 01:26:58;;;;;;;20.72;16.60;;;;;;;21.06;100.00;100180.29;1850067;76;21092;-92
2021/07/30 01:29:29;;;;;;;21.95;17.17;;;;;;;21.03;100.00;100177.22;1819199;77;21034;-92
2021/07/30 01:31:56;;;;;;;18.70;16.80;;;;;;;20.99;100.00;100184.73;1806225;77;21026;-91
2021/07/30 01:34:24;;;;;;;25.20;16.97;;;;;;;20.97;100.00;100190.72;1811633;77;21481;-90
2021/07/30 01:36:51;;;;;;;21.45;18.17;;;;;;;20.97;100.00;100185.42;1815500;77;20978;-92
2021/07/30 01:39:18;;;;;;;26.85;19.40;;;;;;;20.98;100.00;100186.26;1849214;76;21103;-90
2021/07/30 01:41:45;;;;;;;24.72;18.75;;;;;;;20.98;100.00;100189.70;1820341;78;20984;-93
2021/07/30 01:44:14;;;;;;;21.57;18.30;;;;;;;20.93;100.00;100181.55;1866479;76;21493;-93
2021/07/30 01:46:42;;;;;;;25.43;19.62;;;;;;;20.91;100.00;100179.08;1791797;77;21246;-93
2021/07/30 01:49:09;;;;;;;23.80;18.60;;;;;;;20.91;100.00;100179.59;1793918;77;21989;-92
2021/07/30 01:51:40;;;;;;;24.35;19.37;;;;;;;20.88;100.00;100186.09;1803467;78;21128;-91
2021/07/30 01:54:09;;;;;;;24.87;19.42;;;;;;;20.87;100.00;100193.72;1794999;77;21178;-91
2021/07/30 01:56:38;;;;;;;22.32;19.27;;;;;;;20.89;100.00;100195.67;1807561;78;21594;-95
2021/07/30 01:59:09;;;;;;;29.00;20.00;;;;;;;20.87;100.00;100202.98;1829574;77;20971;-93
2021/07/30 02:01:39;;;;;;;29.10;21.65;;;;;;;20.86;100.00;100196.05;1827976;77;21441;-95
2021/07/30 02:04:06;;;;;;;27.13;20.50;;;;;;;20.83;100.00;100196.42;1819461;77;21295;-90
2021/07/30 02:06:35;;;;;;;25.77;21.73;;;;;;;20.81;100.00;100209.05;1842958;77;21509;-93
2021/07/30 02:09:03;;;;;;;28.32;21.20;;;;;;;20.82;100.00;100197.95;1853516;77;21085;-93
2021/07/30 02:11:31;;;;;;;33.13;21.80;;;;;;;20.84;100.00;100191.97;1832964;77;20935;-96
2021/07/30 02:14:17;;;;;;;30.65;22.60;;;;;;;20.81;100.00;100195.82;1802393;77;21480;-91
2021/07/30 02:16:50;;;;;;;28.98;22.80;;;;;;;20.76;100.00;100189.78;1814967;77;21172;-95
2021/07/30 02:19:19;;;;;;;25.60;22.22;;;;;;;20.75;100.00;100188.66;1822604;77;21187;-93
2021/07/30 02:21:48;;;;;;;29.65;23.90;;;;;;;20.75;100.00;100188.14;1825223;77;21053;-91
2021/07/30 02:24:15;;;;;;;26.52;22.37;;;;;;;20.77;100.00;100197.20;1814060;77;21030;-94
2021/07/30 02:26:43;;;;;;;30.32;22.60;;;;;;;20.81;100.00;100199.78;1805416;77;21092;-94
2021/07/30 02:29:13;;;;;;;39.13;23.77;;;;;;;20.87;100.00;100203.50;1814839;77;21476;-95
2021/07/30 02:31:40;;;;;;;38.45;23.98;;;;;;;20.99;100.00;100207.75;1831235;77;21622;-96
2021/07/30 02:34:07;;;;;;;28.87;23.25;;;;;;;21.08;100.00;100210.53;1814659;77;21081;-93
2021/07/30 02:36:35;;;;;;;27.37;24.05;;;;;;;21.19;100.00;100211.84;1805308;78;21097;-91
2021/07/30 02:39:04;;;;;;;26.62;22.65;;;;;;;21.25;100.00;100211.05;1816050;77;21034;-91
2021/07/30 02:41:32;;;;;;;28.87;22.87;;;;;;;21.26;100.00;100212.69;1811726;78;21073;-92
2021/07/30 02:44:00;;;;;;;27.98;22.02;;;;;;;21.25;100.00;100217.14;1802933;77;20988;-90
2021/07/30 02:46:27;;;;;;;30.92;24.00;;;;;;;21.21;100.00;100226.51;1813905;77;20938;-88
2021/07/30 02:48:55;;;;;;;28.73;24.50;;;;;;;21.20;100.00;100222.71;1815142;77;20994;-88
2021/07/30 02:51:39;;;;;;;;;;;;;;;;;;;;;
2021/07/30 02:53:59;;;;;;;32.95;23.83;;;;;;;21.17;100.00;100214.66;1811709;77;21165;-89
2021/07/30 02:56:25;;;;;;;33.73;24.57;;;;;;;21.19;100.00;100209.99;1814913;77;21085;-89
2021/07/30 02:59:01;;;;;;;37.83;26.15;;;;;;;21.25;100.00;100203.11;1819706;77;20987;-89
2021/07/30 03:01:25;;;;;;;34.63;26.00;;;;;;;21.27;100.00;100204.53;1836615;77;20978;-90
2021/07/30 03:03:52;;;;;;;35.30;26.40;;;;;;;21.34;100.00;100210.37;1771289;78;21133;-93
2021/07/30 03:06:39;;;;;;;;;;;;;;;;;;;;;
2021/07/30 03:09:04;;;;;;;42.70;32.35;;;;;;;21.45;100.00;100216.44;1776788;77;21069;-90
2021/07/30 03:11:33;;;;;;;54.38;31.80;;;;;;;21.50;100.00;100203.41;1829192;76;21049;-90
2021/07/30 03:14:09;;;;;;;37.20;28.85;;;;;;;21.58;100.00;100210.42;1817645;76;21056;-88
2021/07/30 03:16:50;;;;;;;37.80;27.60;;;;;;;21.64;100.00;100213.59;1852190;76;21524;-87
2021/07/30 03:19:18;;;;;;;38.45;27.67;;;;;;;21.70;100.00;100220.73;1801745;77;21964;-89
2021/07/30 03:21:45;;;;;;;31.87;27.10;;;;;;;21.74;100.00;100218.02;1804109;78;21132;-93
2021/07/30 03:24:12;;;;;;;35.73;28.55;;;;;;;21.81;100.00;100216.70;1809049;77;21019;-92
2021/07/30 03:26:40;;;;;;;37.08;28.60;;;;;;;21.82;100.00;100222.31;1800653;77;21012;-92
2021/07/30 03:29:07;;;;;;;34.53;29.18;;;;;;;21.85;100.00;100225.06;1802476;77;21054;-93
2021/07/30 03:31:34;;;;;;;33.10;28.98;;;;;;;21.87;100.00;100226.49;1803638;77;21301;-88
2021/07/30 03:34:01;;;;;;;33.25;29.63;;;;;;;21.89;100.00;100229.77;1800038;77;21044;-92
2021/07/30 03:36:28;;;;;;;32.55;29.10;;;;;;;21.94;100.00;100227.84;1815078;77;21123;-89
2021/07/30 03:38:55;;;;;;;36.83;29.92;;;;;;;21.98;100.00;100226.44;1817083;77;21106;-92
2021/07/30 03:41:22;;;;;;;34.58;29.77;;;;;;;22.02;100.00;100234.29;1807720;76;21053;-89
2021/07/30 03:43:50;;;;;;;35.20;31.40;;;;;;;22.06;100.00;100228.91;1806367;77;21829;-90
2021/07/30 03:46:17;;;;;;;38.55;32.33;;;;;;;22.12;100.00;100225.14;1805079;77;21090;-93
2021/07/30 03:48:44;;;;;;;35.65;31.52;;;;;;;22.17;100.00;100222.69;1807381;77;21070;-90
2021/07/30 03:51:11;;;;;;;36.88;33.02;;;;;;;22.22;100.00;100221.07;1805387;76;21893;-93
2021/07/30 03:53:38;;;;;;;40.03;34.08;;;;;;;22.28;100.00;100221.27;1817965;77;21044;-90
2021/07/30 03:56:14;;;;;;;41.88;34.15;;;;;;;22.33;100.00;100220.17;1815376;77;21028;-90
2021/07/30 03:58:45;;;;;;;44.05;35.95;;;;;;;22.38;100.00;100219.05;1813537;76;21178;-92
2021/07/30 04:01:12;;;;;;;42.10;35.03;;;;;;;22.44;100.00;100223.56;1801291;77;21065;-91
2021/07/30 04:03:42;;;;;;;44.08;37.80;;;;;;;22.50;100.00;100212.66;1805165;78;21038;-88
2021/07/30 04:06:11;;;;;;;45.63;39.60;;;;;;;22.56;100.00;100212.35;1804278;77;21451;-92
2021/07/30 04:08:38;;;;;;;46.77;41.65;;;;;;;22.62;100.00;100209.70;1808198;78;21157;-91
2021/07/30 04:11:07;;;;;;;52.55;45.00;;;;;;;22.71;100.00;100214.81;1828960;76;20987;-93
2021/07/30 04:13:34;;;;;;;48.15;43.15;;;;;;;22.76;100.00;100211.81;1812705;77;21876;-91
2021/07/30 04:16:06;;;;;;;55.65;47.15;;;;;;;22.82;100.00;100214.17;1802696;77;21023;-90
2021/07/30 04:18:35;;;;;;;61.83;53.38;;;;;;;22.87;100.00;100209.56;1829774;76;21070;-92
2021/07/30 04:21:07;;;;;;;61.05;54.10;;;;;;;22.93;100.00;100214.05;1804202;77;21475;-88
2021/07/30 04:23:35;;;;;;;66.75;57.05;;;;;;;22.98;100.00;100212.41;1808027;76;21531;-93
2021/07/30 04:26:02;;;;;;;66.80;57.50;;;;;;;23.04;100.00;100217.90;1805999;77;21041;-91
2021/07/30 04:28:30;;;;;;;70.90;59.55;;;;;;;23.09;100.00;100214.94;1809539;77;21041;-91
2021/07/30 04:30:57;;;;;;;74.15;62.13;;;;;;;23.15;100.00;100212.77;1801562;77;21034;-96
2021/07/30 04:33:24;;;;;;;69.40;60.25;;;;;;;23.20;100.00;100213.50;1807047;77;21460;-93
2021/07/30 04:35:53;;;;;;;69.03;61.53;;;;;;;23.23;100.00;100213.09;1803900;78;20979;-90
2021/07/30 04:38:20;;;;;;;66.67;59.50;;;;;;;23.28;100.00;100220.44;1801632;77;21066;-94
2021/07/30 04:40:49;;;;;;;73.35;60.28;;;;;;;23.34;100.00;100213.48;1802018;78;21152;-91
2021/07/30 04:43:17;;;;;;;63.17;56.35;;;;;;;23.41;100.00;100215.59;1836209;76;21503;-92
2021/07/30 04:45:44;;;;;;;62.55;55.67;;;;;;;23.48;100.00;100225.69;1818216;77;21976;-92
2021/07/30 04:48:18;;;;;;;63.42;55.33;;;;;;;23.54;100.00;100228.82;1811804;78;21061;-88
2021/07/30 04:50:54;;;;;;;59.30;52.53;;;;;;;23.61;100.00;100231.46;1852464;76;21049;-91
2021/07/30 04:53:28;;;;;;;57.95;51.33;;;;;;;23.68;100.00;100228.75;1818173;76;21057;-90
2021/07/30 04:56:09;;;;;;;65.20;50.70;;;;;;;23.75;100.00;100228.23;1814753;76;21017;-91
2021/07/30 04:59:05;;;;;;;;;;;;;;;;;;;;;
2021/07/30 05:02:09;;;;;;;;;;;;;;;;;;;;;
2021/07/30 05:04:40;;;;;;;61.70;50.12;;;;;;;24.02;100.00;100234.75;1723036;79;21528;-85
2021/07/30 05:07:59;;;;;;;;;;;;;;;;;;;;;
2021/07/30 05:10:25;;;;;;;57.17;46.30;;;;;;;24.04;100.00;100230.84;1805822;75;22009;-87
2021/07/30 05:12:56;;;;;;;62.50;51.33;;;;;;;24.13;100.00;100234.08;1831964;76;21165;-85
2021/07/30 05:15:32;;;;;;;56.45;48.50;;;;;;;24.21;100.00;100234.32;1835620;76;20990;-88
2021/07/30 05:21:22;;;;;;;;;;;;;;;;;;;;;
2021/07/30 05:23:48;;;;;;;57.88;46.83;;;;;;;24.46;100.00;100234.36;1659595;84;21053;-88
2021/07/30 05:26:43;;;;;;;55.83;45.67;;;;;;;24.55;100.00;100232.23;1832334;76;22014;-86
2021/07/30 05:28:59;;;;;;;50.65;44.90;;;;;;;24.64;100.00;100233.59;1876688;75;21000;-85
2021/07/30 05:31:37;;;;;;;49.23;43.87;;;;;;;24.70;100.00;100230.08;1853114;75;21067;-87
2021/07/30 05:34:04;;;;;;;52.88;44.03;;;;;;;24.75;100.00;100227.30;1853202;75;21516;-86
2021/07/30 05:36:31;;;;;;;49.27;43.48;;;;;;;24.79;100.00;100230.64;1853553;75;20958;-86
2021/07/30 05:39:00;;;;;;;51.10;43.28;;;;;;;24.83;100.00;100233.15;1880739;75;21072;-87
2021/07/30 05:41:28;;;;;;;48.58;43.20;;;;;;;24.88;100.00;100232.49;1852790;76;20981;-87
2021/07/30 05:43:57;;;;;;;45.90;39.88;;;;;;;24.93;100.00;100239.83;1889059;76;21528;-85
2021/07/30 06:15:10;;;;;;;44.67;35.63;;;;;;;24.90;100.00;100241.08;1755013;80;21842;-87
2021/07/30 06:17:37;;;;;;;40.52;36.05;;;;;;;25.06;100.00;100250.34;1758762;79;21074;-85
2021/07/30 06:20:07;;;;;;;40.35;36.05;;;;;;;25.14;100.00;100251.38;1818707;77;21444;-84
2021/07/30 06:22:36;;;;;;;44.10;35.58;;;;;;;25.25;100.00;100253.02;1852600;76;21507;-84
2021/07/30 06:25:05;;;;;;;39.25;35.10;;;;;;;25.35;100.00;100256.80;1853141;75;21052;-87
2021/07/30 06:27:36;;;;;;;47.80;39.18;;;;;;;25.44;100.00;100253.33;1849742;75;21075;-88
2021/07/30 06:30:07;;;;;;;45.20;36.33;;;;;;;25.50;100.00;100264.45;1882891;75;21004;-87
2021/07/30 06:32:37;;;;;;;40.08;35.75;;;;;;;25.54;100.00;100267.98;1884543;75;21456;-83
2021/07/30 06:35:05;;;;;;;38.53;34.38;;;;;;;25.56;100.00;100268.59;1884338;75;21020;-87
2021/07/30 06:37:35;;;;;;;38.08;34.03;;;;;;;25.54;100.00;100274.66;1889744;75;20982;-86
2021/07/30 06:40:04;;;;;;;44.75;36.60;;;;;;;25.54;100.00;100280.81;1888859;75;21940;-87
2021/07/30 06:42:35;;;;;;;42.35;36.15;;;;;;;25.57;100.00;100280.88;1889328;76;21026;-85
2021/07/30 06:45:05;;;;;;;40.03;35.30;;;;;;;25.61;100.00;100274.88;1889304;75;21492;-83
2021/07/30 06:47:37;;;;;;;39.35;34.92;;;;;;;25.69;100.00;100263.08;1882768;74;21072;-86
2021/07/30 06:50:05;;;;;;;39.48;35.30;;;;;;;25.79;100.00;100254.57;1846011;75;20989;-83
2021/07/30 06:52:32;;;;;;;39.20;35.05;;;;;;;25.90;100.00;100252.98;1878741;75;21489;-83
2021/07/30 06:55:00;;;;;;;37.42;33.23;;;;;;;26.00;100.00;100246.57;1913708;74;20963;-84
2021/07/30 06:57:27;;;;;;;36.80;32.83;;;;;;;26.10;100.00;100242.07;1913950;75;21422;-85
2021/07/30 06:59:54;;;;;;;36.65;32.70;;;;;;;26.21;100.00;100250.61;1902738;75;21025;-86
2021/07/30 07:02:21;;;;;;;38.55;34.30;;;;;;;26.32;100.00;100249.00;1844554;76;21042;-86
2021/07/30 07:04:48;;;;;;;38.88;34.50;;;;;;;26.43;100.00;100248.77;1831611;75;21765;-89
2021/07/30 07:07:16;;;;;;;39.83;35.63;;;;;;;26.49;100.00;100250.50;1835510;76;20978;-86
2021/07/30 07:09:43;;;;;;;38.85;34.27;;;;;;;26.48;100.00;100256.08;1865586;75;21513;-87
2021/07/30 07:12:10;;;;;;;42.48;36.42;;;;;;;26.42;100.00;100249.80;1871111;75;21004;-84
2021/07/30 07:14:37;;;;;;;43.70;37.83;;;;;;;26.36;100.00;100252.86;1839639;76;21004;-89
2021/07/30 07:17:04;;;;;;;40.15;35.98;;;;;;;26.31;100.00;100239.41;1845351;75;21091;-86
2021/07/30 07:19:32;;;;;;;38.15;34.10;;;;;;;26.30;100.00;100239.10;1877941;76;21058;-89
2021/07/30 07:21:59;;;;;;;39.50;34.75;;;;;;;26.33;100.00;100230.63;1872765;75;20989;-84
2021/07/30 07:24:26;;;;;;;38.42;31.37;;;;;;;26.37;100.00;100229.64;1825565;76;21049;-88
2021/07/30 07:26:54;;;;;;;34.35;29.90;;;;;;;26.41;100.00;100236.95;1822743;76;21031;-87
2021/07/30 07:29:21;;;;;;;32.60;29.30;;;;;;;26.44;100.00;100229.84;1845315;76;21013;-87
2021/07/30 07:31:48;;;;;;;37.38;31.07;;;;;;;26.48;100.00;100231.52;1883096;75;21068;-86
2021/07/30 07:34:16;;;;;;;36.42;31.17;;;;;;;26.52;100.00;100228.67;1836689;76;21620;-86
2021/07/30 07:36:43;;;;;;;36.85;32.45;;;;;;;26.60;100.00;100239.55;1840784;76;21007;-86
2021/07/30 07:39:10;;;;;;;31.27;28.12;;;;;;;26.67;100.00;100244.78;1855471;75;21501;-85
2021/07/30 07:41:37;;;;;;;26.52;23.92;;;;;;;26.72;100.00;100239.02;1847215;75;21125;-84
2021/07/30 07:44:07;;;;;;;28.87;25.90;;;;;;;26.78;100.00;100251.20;1873840;75;21367;-84
2021/07/30 07:46:35;;;;;;;28.77;25.77;;;;;;;26.73;100.00;100252.66;1835135;76;21047;-88
2021/07/30 07:49:02;;;;;;;30.45;25.62;;;;;;;26.64;100.00;100261.25;1834812;75;21049;-87
2021/07/30 07:51:29;;;;;;;26.95;23.95;;;;;;;26.51;100.00;100263.11;1840074;75;21092;-84
2021/07/30 07:53:57;;;;;;;31.82;24.65;;;;;;;26.41;100.00;100273.52;1828336;76;21131;-87
2021/07/30 07:56:26;;;;;;;27.60;24.18;;;;;;;26.29;100.00;100272.97;1810631;76;20964;-88
2021/07/30 07:58:53;;;;;;;24.52;21.93;;;;;;;26.18;100.00;100272.93;1812465;76;21013;-88
2021/07/30 08:01:22;;;;;;;24.72;22.10;;;;;;;26.11;100.00;100272.52;1805503;77;21053;-83
2021/07/30 08:03:53;;;;;;;22.73;20.17;;;;;;;26.01;100.00;100277.54;1825214;76;21020;-85
2021/07/30 08:06:23;;;;;;;24.12;21.50;;;;;;;25.89;100.00;100277.49;1880236;75;21041;-87
2021/07/30 08:08:50;;;;;;;28.62;22.32;;;;;;;25.78;100.00;100288.41;1875630;75;21060;-89
2021/07/30 08:11:18;;;;;;;23.75;20.80;;;;;;;25.66;100.00;100283.55;1837695;75;21007;-85
2021/07/30 08:13:46;;;;;;;27.65;22.50;;;;;;;25.57;100.00;100280.88;1829518;76;21039;-87
2021/07/30 08:16:22;;;;;;;24.60;22.22;;;;;;;25.50;100.00;100276.95;1833205;75;21089;-92
2021/07/30 08:18:54;;;;;;;28.00;24.52;;;;;;;25.47;100.00;100292.88;1841826;75;20995;-90
2021/07/30 09:55:17;;;;;;;33.13;29.98;;;;;;;25.81;100.00;100313.30;1619090;88;21131;-86
2021/07/30 09:57:43;;;;;;;35.03;31.37;;;;;;;26.13;100.00;100295.78;1710645;81;21575;-88
2021/07/30 10:00:22;;;;;;;36.23;32.85;;;;;;;26.32;100.00;100300.24;1681170;83;21216;-87
2021/07/30 10:02:59;;;;;;;;;;;;;;;;;;;;;
2021/07/30 10:05:35;;;;;;;;;;;;;;;;;;;;;
2021/07/30 10:07:58;;;;;;;36.58;32.75;;;;;;;26.66;100.00;100300.02;1760141;80;21157;-86
2021/07/30 10:10:32;;;;;;;35.98;32.78;;;;;;;26.79;100.00;100294.22;1758578;80;21134;-86
2021/07/30 10:13:12;;;;;;;35.80;32.30;;;;;;;26.96;100.00;100286.32;1851130;76;21425;-88
2021/07/30 10:15:33;;;;;;;37.00;33.18;;;;;;;27.17;100.00;100286.25;1855283;76;21116;-88
2021/07/30 10:18:05;;;;;;;38.75;35.00;;;;;;;27.32;100.00;100289.25;1839346;76;21824;-87
2021/07/30 10:20:42;;;;;;;40.05;35.90;;;;;;;27.40;100.00;100287.56;1890181;75;21040;-88
2021/07/30 10:23:25;;;;;;;;;;;;;;;;;;;;;
2021/07/30 10:41:30;;;;;;;36.70;33.00;;;;;;;27.78;100.00;100289.92;1646146;86;21499;-86
2021/07/30 10:44:06;;;;;;;;;;;;;;;27.68;100.00;100295.35;1572286;87;21046;-87
2021/07/30 10:46:50;;;;;;;;;;;;;;;;;;;;;
2021/07/30 10:49:50;;;;;;;39.42;35.23;;;;;;;27.49;100.00;100281.88;1563706;87;21093;-86
2021/07/30 10:52:27;;;;;;;39.18;35.30;;;;;;;27.43;100.00;100280.95;1453894;90;21068;-85
2021/07/30 10:55:11;;;;;;;;;;;;;;;;;;;;;
2021/07/30 10:57:49;;;;;;;39.38;35.33;;;;;;;27.40;100.00;100274.19;1505786;91;21137;-85
2021/07/30 11:00:25;;;;;;;36.42;32.98;;;;;;;27.45;100.00;100274.02;1622201;85;21612;-86
2021/07/30 11:03:05;;;;;;;34.25;30.95;;;;;;;27.54;100.00;100277.95;1638907;85;21556;-87
2021/07/30 11:06:31;;;;;;;;;;;;;;;;;;;;;
2021/07/30 11:16:29;;;;;;;;;;;;;;;;;;;;;
2021/07/30 11:29:41;;;;;;;;;;;;;;;;;;;;;
2021/07/30 11:42:01;;;;;;;;;;;;;;;;;;;;;
2021/07/30 11:44:08;;;;;;;27.07;24.37;;;;;;;27.62;100.00;100216.09;1266560;110;22388;-89
2021/07/30 11:47:12;;;;;;;26.12;23.35;;;;;;;27.65;100.00;100215.62;1234523;113;21774;-89
2021/07/30 11:56:07;;;;;;;;;;;;;;;;;;;;;
2021/07/30 11:59:07;;;;;;;;;;;;;;;;;;;;;
2021/07/30 12:02:44;;;;;;;;;;;;;;;;;;;;;
2021/07/30 12:07:13;;;;;;;;;;;;;;;;;;;;;
2021/07/30 12:10:29;;;;;;;;;;;;;;;;;;;;;
2021/07/30 12:14:02;;;;;;;26.05;23.60;;;;;;;27.03;100.00;100199.69;1189082;117;21318;-87
2021/07/30 12:17:01;;;;;;;;;;;;;;;;;;;;;
2021/07/30 12:20:13;;;;;;;25.88;23.02;;;;;;;26.99;100.00;100198.51;1202707;116;21170;-87
2021/07/30 12:22:48;;;;;;;24.77;21.62;;;;;;;27.02;100.00;100199.39;1196598;114;22038;-88
2021/07/30 12:25:48;;;;;;;;;;;;;;;;;;;;;
2021/07/30 12:28:24;;;;;;;;;;;;;;;;;;;;;
2021/07/30 12:30:57;;;;;;;21.15;18.48;;;;;;;26.93;100.00;100192.78;1217006;115;21764;-87
2021/07/30 12:33:33;;;;;;;20.30;18.30;;;;;;;26.91;100.00;100194.86;1283915;108;21168;-87
2021/07/30 12:36:11;;;;;;;21.17;18.52;;;;;;;26.92;100.00;100187.14;1355036;100;22304;-89
2021/07/30 12:39:00;;;;;;;20.15;18.20;;;;;;;26.86;100.00;100186.75;1415003;98;21297;-88
2021/07/30 12:41:30;;;;;;;21.12;19.00;;;;;;;26.82;100.00;100194.92;1521415;92;21125;-88
2021/07/30 12:44:28;;;;;;;21.48;18.50;;;;;;;26.80;100.00;100197.05;1518799;91;21154;-89
2021/07/30 12:46:58;;;;;;;24.27;21.68;;;;;;;26.78;100.00;100198.59;1511382;92;21183;-89
2021/07/30 12:49:33;;;;;;;31.15;25.72;;;;;;;26.80;100.00;100203.18;1518293;92;21671;-89
2021/07/30 12:52:12;;;;;;;27.20;24.43;;;;;;;26.87;100.00;100201.20;1500618;93;21161;-89
2021/07/30 12:54:39;;;;;;;29.20;26.40;;;;;;;26.99;100.00;100199.05;1505038;90;21178;-90
2021/07/30 12:57:42;;;;;;;;;;;;;;;;;;;;;
2021/07/30 13:26:08;;;;;;;;;;;;;;;;;;;;;
2021/07/30 14:19:54;;;;;;;21.57;17.98;;;;;;;28.63;100.00;100129.41;1323456;98;21191;-85
2021/07/30 14:22:26;;;;;;;20.05;15.38;;;;;;;28.60;100.00;100129.38;1485787;95;21271;-85
2021/07/30 14:24:54;;;;;;;18.42;14.70;;;;;;;28.54;100.00;100129.55;1526441;90;21560;-85
2021/07/30 14:27:21;;;;;;;16.82;14.18;;;;;;;28.50;100.00;100129.23;1561575;90;21511;-84
2021/07/30 14:29:50;;;;;;;18.10;14.20;;;;;;;28.51;100.00;100132.20;1556447;90;21152;-85
2021/07/30 14:32:17;;;;;;;14.65;12.82;;;;;;;28.61;100.00;100121.63;1518539;92;21218;-86
2021/07/30 14:34:44;;;;;;;15.68;14.10;;;;;;;28.68;100.00;100121.97;1534220;90;21817;-82
2021/07/30 14:37:11;;;;;;;17.27;13.70;;;;;;;28.64;100.00;100123.00;1557462;90;21167;-85
2021/07/30 14:39:38;;;;;;;17.20;13.90;;;;;;;28.53;100.00;100124.73;1540772;89;21188;-85
2021/07/30 14:42:05;;;;;;;15.50;13.05;;;;;;;28.43;100.00;100124.59;1562180;89;21670;-86
2021/07/30 14:44:34;;;;;;;21.27;14.40;;;;;;;28.38;100.00;100121.30;1554571;89;21060;-87
2021/07/30 14:47:01;;;;;;;16.40;14.13;;;;;;;28.34;100.00;100119.65;1582209;89;21162;-85
2021/07/30 14:49:31;;;;;;;22.10;15.63;;;;;;;28.31;100.00;100118.82;1552953;89;21189;-88
2021/07/30 14:51:58;;;;;;;20.43;16.67;;;;;;;28.29;100.00;100119.59;1548359;90;21145;-86
2021/07/30 14:54:40;;;;;;;;;;;;;;;;;;;;;
2021/07/30 14:57:12;;;;;;;18.95;16.52;;;;;;;28.18;100.00;100120.48;1543233;91;21645;-84
2021/07/30 14:59:47;;;;;;;21.02;17.30;;;;;;;28.08;100.00;100127.03;1542910;90;21006;-83
2021/07/30 15:02:33;;;;;;;;;;;;;;;;;;;;;
2021/07/30 15:05:06;;;;;;;24.02;17.73;;;;;;;27.77;100.00;100139.34;1510991;90;21078;-86
2021/07/30 15:07:37;;;;;;;20.27;18.15;;;;;;;27.60;100.00;100141.97;1520035;87;21663;-84
2021/07/30 15:10:05;;;;;;;21.57;17.55;;;;;;;27.48;100.00;100139.90;1604622;86;21069;-85
2021/07/30 15:12:33;;;;;;;25.88;17.90;;;;;;;27.38;100.00;100139.16;1611486;86;21054;-86
2021/07/30 15:15:06;;;;;;;21.33;17.60;;;;;;;27.27;100.00;100145.34;1620578;85;21542;-84
2021/07/30 15:17:30;;;;;;;25.92;17.90;;;;;;;27.16;100.00;100148.35;1643377;85;21077;-82
2021/07/30 15:19:57;;;;;;;25.08;17.30;;;;;;;27.10;100.00;100149.31;1640302;85;21077;-83
2021/07/30 15:22:24;;;;;;;23.85;18.37;;;;;;;27.05;100.00;100148.14;1653894;85;21033;-83
2021/07/30 15:24:51;;;;;;;19.48;17.42;;;;;;;27.01;100.00;100152.85;1658978;85;21038;-83
2021/07/30 15:27:28;;;;;;;;;;;;;;;;;;;;;
2021/07/30 15:29:48;;;;;;;22.77;17.07;;;;;;;26.89;100.00;100152.37;1605046;87;21129;-85
2021/07/30 15:32:15;;;;;;;19.62;15.75;;;;;;;26.83;100.00;100160.50;1623895;87;21079;-84
2021/07/30 15:34:42;;;;;;;18.87;15.50;;;;;;;26.78;100.00;100163.88;1555599;90;21092;-84
2021/07/30 15:37:09;;;;;;;16.87;15.15;;;;;;;26.74;100.00;100161.36;1561267;88;21176;-84
2021/07/30 15:39:36;;;;;;;21.87;16.50;;;;;;;26.72;100.00;100157.57;1610088;87;21165;-85
2021/07/30 15:42:04;;;;;;;19.98;15.60;;;;;;;26.70;100.00;100150.34;1620241;87;21086;-85
2021/07/30 15:44:35;;;;;;;23.18;17.30;;;;;;;26.71;100.00;100147.96;1654646;85;21620;-86
2021/07/30 15:47:18;;;;;;;;;;;;;;;;;;;;;
2021/07/30 15:49:41;;;;;;;19.50;17.00;;;;;;;26.71;100.00;100149.80;1653062;84;21156;-85
2021/07/30 15:52:09;;;;;;;19.10;16.37;;;;;;;26.71;100.00;100153.30;1674679;84;21000;-86
2021/07/30 15:54:37;;;;;;;24.98;17.37;;;;;;;26.69;100.00;100147.38;1682095;84;21106;-86
2021/07/30 15:57:05;;;;;;;18.75;16.50;;;;;;;26.67;100.00;100148.66;1672263;84;21454;-86
2021/07/30 15:59:32;;;;;;;20.20;16.67;;;;;;;26.68;100.00;100145.75;1594416;87;21063;-85
2021/07/30 16:02:00;;;;;;;16.87;15.08;;;;;;;26.67;100.00;100138.78;1578856;89;21212;-85
2021/07/30 16:04:27;;;;;;;17.00;15.28;;;;;;;26.65;100.00;100143.53;1600513;86;21119;-86
2021/07/30 16:06:57;;;;;;;17.48;15.70;;;;;;;26.64;100.00;100147.25;1645438;85;21596;-85
2021/07/30 16:09:32;;;;;;;18.15;16.27;;;;;;;26.62;100.00;100144.02;1654270;84;21686;-85
2021/07/30 16:12:03;;;;;;;18.02;16.30;;;;;;;26.57;100.00;100134.04;1643045;85;21129;-85
2021/07/30 16:14:30;;;;;;;19.25;14.93;;;;;;;26.53;100.00;100136.07;1627357;85;21708;-85
2021/07/30 16:16:59;;;;;;;19.55;16.50;;;;;;;26.45;100.00;100135.38;1591269;86;21569;-85
2021/07/30 16:19:26;;;;;;;18.30;16.25;;;;;;;26.41;100.00;100134.74;1617361;87;21074;-85
2021/07/30 16:21:59;;;;;;;20.75;16.25;;;;;;;26.38;100.00;100141.36;1599833;88;21050;-87
2021/07/30 16:24:26;;;;;;;39.88;16.80;;;;;;;26.34;100.00;100144.72;1604776;86;21557;-84
2021/07/30 16:26:53;;;;;;;39.83;21.97;;;;;;;26.31;100.00;100146.00;1579450;88;21078;-86
2021/07/30 16:29:22;;;;;;;39.05;21.65;;;;;;;26.31;100.00;100147.34;1597505;86;21229;-84
2021/07/30 16:32:00;;;;;;;30.72;20.43;;;;;;;26.32;100.00;100148.94;1586808;88;21252;-89
2021/07/30 16:34:27;;;;;;;52.83;28.62;;;;;;;26.34;100.00;100149.52;1595489;88;21112;-85
2021/07/30 16:36:54;;;;;;;60.45;29.02;;;;;;;26.36;100.00;100155.45;1591679;88;21059;-86
2021/07/30 16:39:22;;;;;;;29.52;22.65;;;;;;;26.38;100.00;100153.88;1595502;88;21051;-86
2021/07/30 16:41:49;;;;;;;25.77;21.73;;;;;;;26.40;100.00;100156.59;1605730;87;21106;-87
2021/07/30 16:44:24;;;;;;;26.62;20.40;;;;;;;26.40;100.00;100155.27;1588015;88;21608;-86
2021/07/30 16:47:23;;;;;;;;;;;;;;;;;;;;;
2021/07/30 16:49:53;;;;;;;29.90;18.35;;;;;;;26.36;100.00;100163.45;1484094;94;21707;-87
2021/07/30 16:52:45;;;;;;;;;;;;;;;;;;;;;
2021/07/30 16:55:17;;;;;;;30.85;18.10;;;;;;;26.31;100.00;100171.35;1565272;89;21130;-89
2021/07/30 16:58:39;;;;;;;20.70;17.37;;;;;;;26.32;100.00;100176.95;1595745;87;21140;-88
2021/07/30 17:01:14;;;;;;;32.48;17.92;;;;;;;26.33;100.00;100174.58;1525309;90;21144;-86
2021/07/30 17:03:59;;;;;;;31.90;17.95;;;;;;;26.33;100.00;100174.58;1595253;87;21200;-89
2021/07/30 17:09:56;;;;;;;;;;;;;;;;;;;;;
2021/07/30 17:12:21;;;;;;;50.23;18.75;;;;;;;26.18;100.00;100175.05;1453966;96;21270;-86
2021/07/30 17:14:52;;;;;;;22.70;17.07;;;;;;;26.13;100.00;100181.06;1510816;89;21102;-87
2021/07/30 17:17:21;;;;;;;22.87;15.93;;;;;;;26.08;100.00;100181.45;1585199;86;21666;-87
2021/07/30 17:19:59;;;;;;;22.13;16.12;;;;;;;26.01;100.00;100181.52;1626349;85;21100;-86